Share

Queen City, MO (63561)

KMOLANCA2 Elev 915 ft | 40.52 °N, 92.52 °W | Change Station

Current weather conditions updated 3 minutes ago

Clear
Clear
65.5 °F
Feels Like 65.5 °F
N
4.0
Wind Variable Wind from SW
Sunrise 6:23 AM
Sunset 7:55 PM
Moon Waning Gibbous

Today is forecast to be Cooler than yesterday. Thunderstorms.

Pressure 30.00 in
Visibility 10.0 miles
Clouds Clear
Dew Point 53 °F
Humidity 65%
Rainfall -9999.00 in
Snow Depth Not available.
UV 0 out of 16
Pollen 10.90 out of 12
Air Quality Not available.
Flu Activity Sporadic
METAR KIRK 210455Z AUTO 26007KT 10SM CLR 21/11 A3001 RMK AO2 SLP159 T02060106

More Conditions Fewer Conditions

Pressure 30.00 in
Visibility 10.0 miles
Clouds Clear
Dew Point 53 °F
Humidity 65%
Rainfall -9999.00 in
Snow Depth Not available.
UV 0 out of 16
Pollen 10.90 out of 12
Air Quality Not available.
Flu Activity Sporadic
METAR KIRK 210455Z AUTO 26007KT 10SM CLR 21/11 A3001 RMK AO2 SLP159 T02060106

More Conditions Fewer Conditions

10-Day Weather Forecast

Almanac

Astronomy

Apr. 21, 2014 Rise Set
Actual Time 6:23 AM CDT 7:55 PM CDT
Civil Twilight 5:54 AM CDT 8:24 PM CDT
Nautical Twilight 5:19 AM CDT 8:59 PM CDT
Astronomical Twilight 4:43 AM CDT 9:35 PM CDT
Moon 1:26 AM CDT 11:50 AM CDT
Length of Visible Light 14h 29m
Length of Day
13h 32m
Tomorrow will be 2m 27s longer.
Waning Gibbous, 63% of the Moon is Illuminated
Today
Waning Gibbous
Apr 22
Last Quarter
Apr 29
New
May 6
First Quarter
May 14
Full

Today's Extremes

State Highs State Lows

Community

  • Snowy Robin
    Snowy Robin
  • Sun Pillar and Geese
    Sun Pillar and Geese
  • Showers on the Way
    Showers on the Way
  • Easter Morning Fog
    Easter Morning Fog
  • Easter Dance
    Easter Dance

WunderPhotos

Upload Photos

1,703,563 photos uploaded!

WunderBlogs® & News

Nearby

Snow Depth

Station Depth Elevation
No new snow has been reported.

Coastal Water Temperatures

Place Temperature
No Stations Reporting

Earthquake Activity

City Distance Mag. Time & Date
No recent earthquake activity has been reported nearby.
Minimum magnitude displayed is 2.5.

Nearby Weather Stations

Station Location Temp. Dew Point Humidity Wind Precip. Elev Updated Type
Lancaster, MO 65.5 °F 53 °F 65% SW  at  4.0 mph - / hr 915 ft 12:24 AM CDT Normal

Show More Stations Show Fewer Stations

What do you think?

We're not finished. Please let us know what you like, what you don't like, and what you are still missing.